sensor_id;sensor_type;location;lat;lon;timestamp;pressure;altitude;pressure_sealevel;temperature;humidity
37132;BME280;23035;50.032;21.978;2023-02-15T00:03:03;65551.25;;;3.69;100.00
37132;BME280;23035;50.032;21.978;2023-02-15T00:08:09;65708.41;;;5.12;100.00
37132;BME280;23035;50.032;21.978;2023-02-15T00:13:14;65619.25;;;4.27;100.00
37132;BME280;23035;50.032;21.978;2023-02-15T00:18:18;65536.75;;;3.53;100.00
37132;BME280;23035;50.032;21.978;2023-02-15T00:23:26;65651.81;;;4.58;100.00
37132;BME280;23035;50.032;21.978;2023-02-15T00:28:31;65585.00;;;3.92;100.00
37132;BME280;23035;50.032;21.978;2023-02-15T00:33:36;65630.38;;;4.35;100.00
37132;BME280;23035;50.032;21.978;2023-02-15T00:38:43;65664.19;;;4.72;100.00
37132;BME280;23035;50.032;21.978;2023-02-15T00:43:48;65773.63;;;5.76;100.00
37132;BME280;23035;50.032;21.978;2023-02-15T00:48:52;65650.19;;;4.56;100.00
37132;BME280;23035;50.032;21.978;2023-02-15T00:53:58;65633.66;;;4.41;100.00
37132;BME280;23035;50.032;21.978;2023-02-15T00:59:05;65582.00;;;3.94;100.00
37132;BME280;23035;50.032;21.978;2023-02-15T01:04:09;65698.88;;;5.05;100.00
37132;BME280;23035;50.032;21.978;2023-02-15T01:09:15;65765.63;;;5.69;100.00
37132;BME280;23035;50.032;21.978;2023-02-15T01:14:19;65663.75;;;4.74;100.00
37132;BME280;23035;50.032;21.978;2023-02-15T01:19:24;65540.84;;;3.52;100.00
37132;BME280;23035;50.032;21.978;2023-02-15T01:24:31;65680.91;;;4.93;100.00
37132;BME280;23035;50.032;21.978;2023-02-15T01:29:38;65746.94;;;5.51;100.00
37132;BME280;23035;50.032;21.978;2023-02-15T01:34:43;65634.19;;;4.41;100.00
37132;BME280;23035;50.032;21.978;2023-02-15T01:39:50;65497.56;;;3.08;100.00
37132;BME280;23035;50.032;21.978;2023-02-15T01:44:55;65626.91;;;4.39;100.00
37132;BME280;23035;50.032;21.978;2023-02-15T01:50:06;65627.97;;;4.40;100.00
37132;BME280;23035;50.032;21.978;2023-02-15T01:55:14;65562.69;;;3.73;100.00
37132;BME280;23035;50.032;21.978;2023-02-15T02:00:20;65665.25;;;4.73;100.00
37132;BME280;23035;50.032;21.978;2023-02-15T02:05:26;65801.97;;;6.03;100.00
37132;BME280;23035;50.032;21.978;2023-02-15T02:10:32;65660.53;;;4.71;100.00
37132;BME280;23035;50.032;21.978;2023-02-15T02:15:41;65646.03;;;4.55;100.00
37132;BME280;23035;50.032;21.978;2023-02-15T02:21:31;65691.50;;;5.01;100.00
37132;BME280;23035;50.032;21.978;2023-02-15T02:27:09;65731.00;;;5.38;100.00
37132;BME280;23035;50.032;21.978;2023-02-15T02:32:56;65736.78;;;5.41;100.00
37132;BME280;23035;50.032;21.978;2023-02-15T02:38:10;65703.03;;;5.07;100.00
37132;BME280;23035;50.032;21.978;2023-02-15T02:43:20;65661.06;;;4.72;100.00
37132;BME280;23035;50.032;21.978;2023-02-15T02:48:46;65682.44;;;4.92;100.00
37132;BME280;23035;50.032;21.978;2023-02-15T02:53:59;65581.38;;;3.91;100.00
37132;BME280;23035;50.032;21.978;2023-02-15T02:59:11;65672.09;;;4.77;100.00
37132;BME280;23035;50.032;21.978;2023-02-15T03:04:21;65596.94;;;4.08;100.00
37132;BME280;23035;50.032;21.978;2023-02-15T03:09:30;65715.31;;;5.18;100.00
37132;BME280;23035;50.032;21.978;2023-02-15T03:14:48;65785.53;;;5.90;100.00
37132;BME280;23035;50.032;21.978;2023-02-15T03:19:58;65720.69;;;5.24;100.00
37132;BME280;23035;50.032;21.978;2023-02-15T03:25:11;65724.59;;;5.32;100.00
37132;BME280;23035;50.032;21.978;2023-02-15T03:30:22;65629.91;;;4.37;100.00
37132;BME280;23035;50.032;21.978;2023-02-15T03:35:34;65709.09;;;5.17;100.00
37132;BME280;23035;50.032;21.978;2023-02-15T03:40:44;65744.69;;;5.46;100.00
37132;BME280;23035;50.032;21.978;2023-02-15T03:46:15;65696.63;;;5.01;100.00
37132;BME280;23035;50.032;21.978;2023-02-15T03:51:27;65654.56;;;4.63;100.00
37132;BME280;23035;50.032;21.978;2023-02-15T03:56:42;65563.34;;;3.76;100.00
37132;BME280;23035;50.032;21.978;2023-02-15T04:02:09;65559.19;;;3.74;100.00
37132;BME280;23035;50.032;21.978;2023-02-15T04:07:17;65704.31;;;5.13;100.00
37132;BME280;23035;50.032;21.978;2023-02-15T04:12:21;65758.78;;;5.65;100.00
37132;BME280;23035;50.032;21.978;2023-02-15T04:17:27;65722.44;;;5.30;100.00
37132;BME280;23035;50.032;21.978;2023-02-15T04:22:33;65760.91;;;5.67;100.00
37132;BME280;23035;50.032;21.978;2023-02-15T04:27:57;65661.50;;;4.70;100.00
37132;BME280;23035;50.032;21.978;2023-02-15T04:33:01;65652.88;;;4.59;100.00
37132;BME280;23035;50.032;21.978;2023-02-15T04:38:08;65626.38;;;4.39;100.00
37132;BME280;23035;50.032;21.978;2023-02-15T04:43:12;65741.16;;;5.48;100.00
37132;BME280;23035;50.032;21.978;2023-02-15T04:48:17;65671.09;;;4.79;100.00
37132;BME280;23035;50.032;21.978;2023-02-15T04:53:24;65706.78;;;5.10;100.00
37132;BME280;23035;50.032;21.978;2023-02-15T04:58:30;65764.03;;;5.67;100.00
37132;BME280;23035;50.032;21.978;2023-02-15T05:03:34;65768.84;;;5.72;100.00
37132;BME280;23035;50.032;21.978;2023-02-15T05:08:40;65611.88;;;4.22;100.00
37132;BME280;23035;50.032;21.978;2023-02-15T05:13:45;65619.25;;;4.27;100.00
37132;BME280;23035;50.032;21.978;2023-02-15T05:18:51;65676.53;;;4.86;100.00
37132;BME280;23035;50.032;21.978;2023-02-15T05:23:57;65564.50;;;3.80;100.00
37132;BME280;23035;50.032;21.978;2023-02-15T05:29:01;65538.25;;;3.52;100.00
37132;BME280;23035;50.032;21.978;2023-02-15T05:34:06;65673.16;;;4.78;100.00
37132;BME280;23035;50.032;21.978;2023-02-15T05:39:12;65716.06;;;5.24;100.00
37132;BME280;23035;50.032;21.978;2023-02-15T05:44:21;65740.84;;;5.40;100.00
37132;BME280;23035;50.032;21.978;2023-02-15T05:49:28;65709.03;;;5.15;100.00
37132;BME280;23035;50.032;21.978;2023-02-15T05:54:35;65725.66;;;5.33;100.00
37132;BME280;23035;50.032;21.978;2023-02-15T05:59:40;65748.63;;;5.55;100.00
37132;BME280;23035;50.032;21.978;2023-02-15T06:04:44;65639.09;;;4.48;100.00
37132;BME280;23035;50.032;21.978;2023-02-15T06:09:50;65574.53;;;3.87;100.00
37132;BME280;23035;50.032;21.978;2023-02-15T06:14:55;65725.47;;;5.28;100.00
37132;BME280;23035;50.032;21.978;2023-02-15T06:19:59;65768.31;;;5.71;100.00
37132;BME280;23035;50.032;21.978;2023-02-15T06:25:06;65691.50;;;5.01;100.00
37132;BME280;23035;50.032;21.978;2023-02-15T06:30:13;65766.34;;;5.74;100.00
37132;BME280;23035;50.032;21.978;2023-02-15T06:35:18;65799.84;;;6.01;100.00
37132;BME280;23035;50.032;21.978;2023-02-15T06:40:25;65788.41;;;5.86;100.00
37132;BME280;23035;50.032;21.978;2023-02-15T06:45:29;65770.00;;;5.75;100.00
37132;BME280;23035;50.032;21.978;2023-02-15T06:50:34;65795.56;;;5.97;100.00
37132;BME280;23035;50.032;21.978;2023-02-15T06:55:40;65821.84;;;6.25;100.00
37132;BME280;23035;50.032;21.978;2023-02-15T07:00:45;65719.06;;;5.22;100.00
37132;BME280;23035;50.032;21.978;2023-02-15T07:05:54;65808.94;;;6.10;100.00
37132;BME280;23035;50.032;21.978;2023-02-15T07:11:00;65863.97;;;6.63;100.00
37132;BME280;23035;50.032;21.978;2023-02-15T07:16:19;65813.81;;;6.17;100.00
37132;BME280;23035;50.032;21.978;2023-02-15T07:21:24;65777.38;;;5.80;100.00
37132;BME280;23035;50.032;21.978;2023-02-15T07:26:31;65802.44;;;6.01;100.00
37132;BME280;23035;50.032;21.978;2023-02-15T07:31:35;65742.56;;;5.44;100.00
37132;BME280;23035;50.032;21.978;2023-02-15T07:36:40;65788.19;;;5.93;100.00
37132;BME280;23035;50.032;21.978;2023-02-15T07:41:48;65886.44;;;6.84;100.00
37132;BME280;23035;50.032;21.978;2023-02-15T07:46:53;65774.25;;;5.80;100.00
37132;BME280;23035;50.032;21.978;2023-02-15T07:52:00;65662.03;;;4.70;100.00
37132;BME280;23035;50.032;21.978;2023-02-15T07:57:07;65719.25;;;5.27;100.00
37132;BME280;23035;50.032;21.978;2023-02-15T08:02:11;65835.34;;;6.28;100.00
37132;BME280;23035;50.032;21.978;2023-02-15T08:07:16;65800.47;;;6.04;100.00
37132;BME280;23035;50.032;21.978;2023-02-15T08:12:22;65811.69;;;6.15;100.00
37132;BME280;23035;50.032;21.978;2023-02-15T08:17:27;65758.78;;;5.65;100.00
37132;BME280;23035;50.032;21.978;2023-02-15T08:22:31;65901.50;;;7.01;100.00
37132;BME280;23035;50.032;21.978;2023-02-15T08:27:37;65971.47;;;7.65;100.00
37132;BME280;23035;50.032;21.978;2023-02-15T08:32:41;65898.72;;;6.96;100.00
37132;BME280;23035;50.032;21.978;2023-02-15T08:37:46;65897.66;;;6.95;100.00
37132;BME280;23035;50.032;21.978;2023-02-15T08:42:52;65938.94;;;7.36;100.00
37132;BME280;23035;50.032;21.978;2023-02-15T08:47:56;65873.59;;;6.72;100.00
37132;BME280;23035;50.032;21.978;2023-02-15T08:53:01;65907.72;;;7.02;100.00
37132;BME280;23035;50.032;21.978;2023-02-15T08:58:08;65806.25;;;6.08;100.00
37132;BME280;23035;50.032;21.978;2023-02-15T09:03:13;65983.25;;;7.76;100.00
37132;BME280;23035;50.032;21.978;2023-02-15T09:08:18;65955.97;;;7.50;100.00
37132;BME280;23035;50.032;21.978;2023-02-15T09:13:24;65896.16;;;6.96;100.00
37132;BME280;23035;50.032;21.978;2023-02-15T09:18:30;65961.75;;;7.53;100.00
37132;BME280;23035;50.032;21.978;2023-02-15T09:23:34;65922.28;;;7.18;100.00
37132;BME280;23035;50.032;21.978;2023-02-15T09:28:42;65893.38;;;6.90;100.00
37132;BME280;23035;50.032;21.978;2023-02-15T09:33:47;65946.34;;;7.41;100.00
37132;BME280;23035;50.032;21.978;2023-02-15T09:38:56;65917.53;;;7.16;100.00
37132;BME280;23035;50.032;21.978;2023-02-15T09:44:11;65819.19;;;6.22;100.00
37132;BME280;23035;50.032;21.978;2023-02-15T09:49:26;66033.38;;;8.19;100.00
37132;BME280;23035;50.032;21.978;2023-02-15T09:55:02;65960.69;;;7.52;100.00
37132;BME280;23035;50.032;21.978;2023-02-15T10:00:19;65965.59;;;7.59;100.00
37132;BME280;23035;50.032;21.978;2023-02-15T10:05:34;65833.06;;;6.36;100.00
37132;BME280;23035;50.032;21.978;2023-02-15T10:10:43;65845.34;;;6.47;100.00
37132;BME280;23035;50.032;21.978;2023-02-15T10:16:01;65948.47;;;7.43;100.00
37132;BME280;23035;50.032;21.978;2023-02-15T10:21:17;66009.47;;;8.01;100.00
37132;BME280;23035;50.032;21.978;2023-02-15T10:26:29;66012.16;;;8.03;100.00
37132;BME280;23035;50.032;21.978;2023-02-15T10:31:42;65914.25;;;7.10;100.00
37132;BME280;23035;50.032;21.978;2023-02-15T10:37:07;65819.63;;;6.20;100.00
37132;BME280;23035;50.032;21.978;2023-02-15T10:42:21;65884.75;;;6.80;100.00
37132;BME280;23035;50.032;21.978;2023-02-15T10:47:42;65830.41;;;6.33;100.00
37132;BME280;23035;50.032;21.978;2023-02-15T10:52:59;65921.91;;;7.23;100.00
37132;BME280;23035;50.032;21.978;2023-02-15T10:58:14;65900.31;;;6.97;100.00
37132;BME280;23035;50.032;21.978;2023-02-15T11:03:41;65973.53;;;7.64;100.00
37132;BME280;23035;50.032;21.978;2023-02-15T11:08:51;65941.63;;;7.39;97.20
37132;BME280;23035;50.032;21.978;2023-02-15T11:14:00;66084.34;;;8.70;90.39
37132;BME280;23035;50.032;21.978;2023-02-15T11:19:12;65890.16;;;6.87;97.70
37132;BME280;23035;50.032;21.978;2023-02-15T11:24:19;66105.25;;;8.89;86.77
37132;BME280;23035;50.032;21.978;2023-02-15T11:29:28;66000.47;;;7.95;87.30
37132;BME280;23035;50.032;21.978;2023-02-15T11:34:45;66081.69;;;8.67;84.98
37132;BME280;23035;50.032;21.978;2023-02-15T11:39:55;66134.72;;;9.17;80.91
37132;BME280;23035;50.032;21.978;2023-02-15T11:45:04;66156.75;;;9.41;80.59
37132;BME280;23035;50.032;21.978;2023-02-15T11:50:16;66118.38;;;9.09;82.99
37132;BME280;23035;50.032;21.978;2023-02-15T11:55:58;66091.75;;;8.74;80.39
37132;BME280;23035;50.032;21.978;2023-02-15T12:01:12;66042.66;;;8.32;85.96
37132;BME280;23035;50.032;21.978;2023-02-15T12:06:24;66160.59;;;9.47;80.96
37132;BME280;23035;50.032;21.978;2023-02-15T12:11:35;66319.22;;;10.95;73.54
37132;BME280;23035;50.032;21.978;2023-02-15T12:16:43;66505.59;;;12.74;62.90
37132;BME280;23035;50.032;21.978;2023-02-15T12:21:51;66512.59;;;12.81;62.48
37132;BME280;23035;50.032;21.978;2023-02-15T12:26:59;66558.81;;;13.25;58.00
37132;BME280;23035;50.032;21.978;2023-02-15T12:32:06;66618.50;;;13.81;56.08
37132;BME280;23035;50.032;21.978;2023-02-15T12:37:21;66734.22;;;14.93;52.31
37132;BME280;23035;50.032;21.978;2023-02-15T12:42:28;66816.91;;;15.64;47.98
37132;BME280;23035;50.032;21.978;2023-02-15T12:47:45;66642.78;;;14.06;51.56
37132;BME280;23035;50.032;21.978;2023-02-15T12:53:06;66692.78;;;14.54;49.56
37132;BME280;23035;50.032;21.978;2023-02-15T12:58:16;66543.75;;;13.10;53.35
37132;BME280;23035;50.032;21.978;2023-02-15T13:03:24;66792.28;;;15.45;47.29
37132;BME280;23035;50.032;21.978;2023-02-15T13:08:31;66718.38;;;14.71;48.57
37132;BME280;23035;50.032;21.978;2023-02-15T13:13:47;66655.81;;;14.06;49.48
37132;BME280;23035;50.032;21.978;2023-02-15T13:18:54;66729.75;;;14.84;49.45
37132;BME280;23035;50.032;21.978;2023-02-15T13:24:04;66628.16;;;13.90;50.92
37132;BME280;23035;50.032;21.978;2023-02-15T13:29:17;66544.38;;;13.13;53.53
37132;BME280;23035;50.032;21.978;2023-02-15T13:34:24;66589.38;;;13.51;51.95
37132;BME280;23035;50.032;21.978;2023-02-15T13:39:34;66678.25;;;14.40;50.81
37132;BME280;23035;50.032;21.978;2023-02-15T13:45:08;66553.81;;;13.15;53.80
37132;BME280;23035;50.032;21.978;2023-02-15T13:50:30;66531.25;;;12.93;53.67
37132;BME280;23035;50.032;21.978;2023-02-15T13:55:42;66563.03;;;13.26;51.02
37132;BME280;23035;50.032;21.978;2023-02-15T14:00:56;66533.00;;;13.00;53.59
37132;BME280;23035;50.032;21.978;2023-02-15T14:06:30;66586.84;;;13.54;52.36
37132;BME280;23035;50.032;21.978;2023-02-15T14:11:48;66566.88;;;13.32;51.92
37132;BME280;23035;50.032;21.978;2023-02-15T14:17:01;66540.53;;;13.07;52.81
37132;BME280;23035;50.032;21.978;2023-02-15T14:22:15;66588.38;;;13.53;51.40
37132;BME280;23035;50.032;21.978;2023-02-15T14:27:32;66460.41;;;12.29;55.17
37132;BME280;23035;50.032;21.978;2023-02-15T14:32:47;66474.00;;;12.47;55.44
37132;BME280;23035;50.032;21.978;2023-02-15T14:37:57;66539.75;;;12.99;51.60
37132;BME280;23035;50.032;21.978;2023-02-15T14:43:09;66495.41;;;12.64;52.48
37132;BME280;23035;50.032;21.978;2023-02-15T14:48:20;66415.47;;;11.91;54.80
37132;BME280;23035;50.032;21.978;2023-02-15T14:53:36;66515.75;;;12.81;51.50
37132;BME280;23035;50.032;21.978;2023-02-15T14:58:58;66502.38;;;12.71;52.04
37132;BME280;23035;50.032;21.978;2023-02-15T15:04:05;66515.66;;;12.79;52.54
37132;BME280;23035;50.032;21.978;2023-02-15T15:09:14;66428.72;;;11.99;51.18
37132;BME280;23035;50.032;21.978;2023-02-15T15:14:41;66386.47;;;11.64;52.49
37132;BME280;23035;50.032;21.978;2023-02-15T15:20:05;66357.41;;;11.34;54.11
37132;BME280;23035;50.032;21.978;2023-02-15T15:25:50;66355.88;;;11.35;54.20
37132;BME280;23035;50.032;21.978;2023-02-15T15:30:58;66321.44;;;11.00;54.87
37132;BME280;23035;50.032;21.978;2023-02-15T15:36:21;66255.41;;;10.34;58.59
37132;BME280;23035;50.032;21.978;2023-02-15T15:41:40;66105.41;;;8.95;61.31
37132;BME280;23035;50.032;21.978;2023-02-15T15:47:08;66055.97;;;8.43;68.14
37132;BME280;23035;50.032;21.978;2023-02-15T15:52:20;66039.97;;;8.30;65.61
37132;BME280;23035;50.032;21.978;2023-02-15T15:57:28;65966.66;;;7.60;69.19
37132;BME280;23035;50.032;21.978;2023-02-15T16:02:34;65926.47;;;7.19;73.20
37132;BME280;23035;50.032;21.978;2023-02-15T16:07:40;65924.31;;;7.17;72.59
37132;BME280;23035;50.032;21.978;2023-02-15T16:12:47;65885.28;;;6.80;76.00
37132;BME280;23035;50.032;21.978;2023-02-15T16:17:56;65880.66;;;6.81;78.19
37132;BME280;23035;50.032;21.978;2023-02-15T16:23:21;65923.97;;;7.22;75.05
37132;BME280;23035;50.032;21.978;2023-02-15T16:28:30;65943.75;;;7.41;72.20
37132;BME280;23035;50.032;21.978;2023-02-15T16:33:37;65964.53;;;7.58;71.59
37132;BME280;23035;50.032;21.978;2023-02-15T16:39:06;65940.44;;;7.35;72.14
37132;BME280;23035;50.032;21.978;2023-02-15T16:44:16;65943.66;;;7.38;72.88
37132;BME280;23035;50.032;21.978;2023-02-15T16:49:24;65923.34;;;7.19;72.53
37132;BME280;23035;50.032;21.978;2023-02-15T16:54:30;65942.25;;;7.42;71.92
37132;BME280;23035;50.032;21.978;2023-02-15T16:59:37;65934.56;;;7.30;73.71
37132;BME280;23035;50.032;21.978;2023-02-15T17:05:02;65901.75;;;6.94;75.35
37132;BME280;23035;50.032;21.978;2023-02-15T17:10:26;65899.91;;;6.99;76.05
37132;BME280;23035;50.032;21.978;2023-02-15T17:15:33;65891.25;;;6.88;77.28
37132;BME280;23035;50.032;21.978;2023-02-15T17:20:40;65895.06;;;6.95;77.38
37132;BME280;23035;50.032;21.978;2023-02-15T17:25:47;65806.69;;;6.06;83.21
37132;BME280;23035;50.032;21.978;2023-02-15T17:30:53;65859.06;;;6.55;80.21
37132;BME280;23035;50.032;21.978;2023-02-15T17:36:05;65770.88;;;5.71;85.12
37132;BME280;23035;50.032;21.978;2023-02-15T17:41:11;65806.78;;;6.08;84.56
37132;BME280;23035;50.032;21.978;2023-02-15T17:46:16;65819.09;;;6.20;84.06
37132;BME280;23035;50.032;21.978;2023-02-15T17:51:26;65815.88;;;6.17;84.83
37132;BME280;23035;50.032;21.978;2023-02-15T17:56:31;65813.19;;;6.14;84.38
37132;BME280;23035;50.032;21.978;2023-02-15T18:01:49;65767.34;;;5.73;85.34
37132;BME280;23035;50.032;21.978;2023-02-15T18:07:18;65753.25;;;5.55;87.41
37132;BME280;23035;50.032;21.978;2023-02-15T18:12:51;65782.19;;;5.85;86.79
37132;BME280;23035;50.032;21.978;2023-02-15T18:18:03;65740.97;;;5.43;89.68
37132;BME280;23035;50.032;21.978;2023-02-15T18:23:11;65678.16;;;4.88;96.77
37132;BME280;23035;50.032;21.978;2023-02-15T18:28:16;65609.19;;;4.20;100.00
37132;BME280;23035;50.032;21.978;2023-02-15T18:33:28;65657.78;;;4.66;100.00
37132;BME280;23035;50.032;21.978;2023-02-15T18:38:37;65591.50;;;4.00;100.00
37132;BME280;23035;50.032;21.978;2023-02-15T18:43:42;65601.84;;;4.15;100.00
37132;BME280;23035;50.032;21.978;2023-02-15T18:48:47;65606.44;;;4.15;100.00
37132;BME280;23035;50.032;21.978;2023-02-15T18:53:53;65619.88;;;4.30;100.00
37132;BME280;23035;50.032;21.978;2023-02-15T18:58:57;65646.91;;;4.51;100.00
37132;BME280;23035;50.032;21.978;2023-02-15T19:04:02;65589.03;;;4.03;100.00
37132;BME280;23035;50.032;21.978;2023-02-15T19:09:13;65643.91;;;4.53;100.00
37132;BME280;23035;50.032;21.978;2023-02-15T19:14:25;65500.97;;;3.16;100.00
37132;BME280;23035;50.032;21.978;2023-02-15T19:19:30;65576.22;;;3.91;100.00
37132;BME280;23035;50.032;21.978;2023-02-15T19:24:39;65543.94;;;3.53;100.00
37132;BME280;23035;50.032;21.978;2023-02-15T19:29:44;65626.72;;;4.34;100.00
37132;BME280;23035;50.032;21.978;2023-02-15T19:34:48;65648.16;;;4.57;100.00
37132;BME280;23035;50.032;21.978;2023-02-15T19:39:54;65586.50;;;3.91;100.00
37132;BME280;23035;50.032;21.978;2023-02-15T19:44:59;65519.72;;;3.37;100.00
37132;BME280;23035;50.032;21.978;2023-02-15T19:50:05;65465.66;;;2.80;100.00
37132;BME280;23035;50.032;21.978;2023-02-15T19:55:20;65513.66;;;3.26;100.00
37132;BME280;23035;50.032;21.978;2023-02-15T20:00:26;65584.03;;;3.93;100.00
37132;BME280;23035;50.032;21.978;2023-02-15T20:05:33;65607.16;;;4.20;100.00
37132;BME280;23035;50.032;21.978;2023-02-15T20:10:41;65638.03;;;4.47;100.00
37132;BME280;23035;50.032;21.978;2023-02-15T20:15:47;65648.50;;;4.52;100.00
37132;BME280;23035;50.032;21.978;2023-02-15T20:20:53;65570.16;;;3.80;100.00
37132;BME280;23035;50.032;21.978;2023-02-15T20:26:01;65583.69;;;3.98;100.00
37132;BME280;23035;50.032;21.978;2023-02-15T20:31:13;65512.69;;;3.28;100.00
37132;BME280;23035;50.032;21.978;2023-02-15T20:36:19;65553.75;;;3.67;100.00
37132;BME280;23035;50.032;21.978;2023-02-15T20:41:26;65502.47;;;3.15;100.00
37132;BME280;23035;50.032;21.978;2023-02-15T20:46:41;65562.06;;;3.70;100.00
37132;BME280;23035;50.032;21.978;2023-02-15T20:51:45;65517.38;;;3.30;100.00
37132;BME280;23035;50.032;21.978;2023-02-15T20:56:52;65547.78;;;3.59;100.00
37132;BME280;23035;50.032;21.978;2023-02-15T21:01:58;65518.66;;;3.36;100.00
37132;BME280;23035;50.032;21.978;2023-02-15T21:07:04;65487.97;;;2.99;100.00
37132;BME280;23035;50.032;21.978;2023-02-15T21:12:12;65487.53;;;3.01;100.00
37132;BME280;23035;50.032;21.978;2023-02-15T21:17:17;65523.88;;;3.38;100.00
37132;BME280;23035;50.032;21.978;2023-02-15T21:22:22;65486.91;;;2.98;100.00
37132;BME280;23035;50.032;21.978;2023-02-15T21:27:28;65486.66;;;3.05;100.00
37132;BME280;23035;50.032;21.978;2023-02-15T21:32:32;65414.22;;;2.36;100.00
37132;BME280;23035;50.032;21.978;2023-02-15T21:37:38;65458.75;;;2.74;100.00
37132;BME280;23035;50.032;21.978;2023-02-15T21:42:45;65431.69;;;2.50;100.00
37132;BME280;23035;50.032;21.978;2023-02-15T21:48:06;65473.13;;;2.87;100.00
37132;BME280;23035;50.032;21.978;2023-02-15T21:53:14;65483.47;;;3.02;100.00
37132;BME280;23035;50.032;21.978;2023-02-15T21:58:23;65405.16;;;2.27;100.00
37132;BME280;23035;50.032;21.978;2023-02-15T22:03:31;65450.41;;;2.71;100.00
37132;BME280;23035;50.032;21.978;2023-02-15T22:08:36;65499.78;;;3.13;100.00
37132;BME280;23035;50.032;21.978;2023-02-15T22:13:43;65428.47;;;2.47;100.00
37132;BME280;23035;50.032;21.978;2023-02-15T22:18:48;65406.66;;;2.26;100.00
37132;BME280;23035;50.032;21.978;2023-02-15T22:23:52;65439.56;;;2.55;100.00
37132;BME280;23035;50.032;21.978;2023-02-15T22:28:58;65439.03;;;2.55;100.00
37132;BME280;23035;50.032;21.978;2023-02-15T22:34:03;65474.09;;;2.86;100.00
37132;BME280;23035;50.032;21.978;2023-02-15T22:39:08;65522.91;;;3.40;100.00
37132;BME280;23035;50.032;21.978;2023-02-15T22:44:16;65446.69;;;2.67;100.00
37132;BME280;23035;50.032;21.978;2023-02-15T22:49:23;65514.81;;;3.30;100.00
37132;BME280;23035;50.032;21.978;2023-02-15T22:54:27;65473.13;;;2.87;100.00
37132;BME280;23035;50.032;21.978;2023-02-15T22:59:33;65421.03;;;2.40;100.00
37132;BME280;23035;50.032;21.978;2023-02-15T23:04:38;65431.47;;;2.45;100.00
37132;BME280;23035;50.032;21.978;2023-02-15T23:09:42;65468.53;;;2.88;100.00
37132;BME280;23035;50.032;21.978;2023-02-15T23:14:48;65490.81;;;3.07;100.00
37132;BME280;23035;50.032;21.978;2023-02-15T23:19:53;65504.16;;;3.20;100.00
37132;BME280;23035;50.032;21.978;2023-02-15T23:24:57;65533.47;;;3.48;100.00
37132;BME280;23035;50.032;21.978;2023-02-15T23:30:08;65487.53;;;3.01;100.00
37132;BME280;23035;50.032;21.978;2023-02-15T23:35:17;65446.69;;;2.67;100.00
37132;BME280;23035;50.032;21.978;2023-02-15T23:40:21;65507.34;;;3.23;100.00
37132;BME280;23035;50.032;21.978;2023-02-15T23:45:45;65517.38;;;3.30;100.00
37132;BME280;23035;50.032;21.978;2023-02-15T23:50:49;65516.22;;;3.26;100.00
37132;BME280;23035;50.032;21.978;2023-02-15T23:55:54;65535.16;;;3.52;100.00
